sensor_id;sensor_type;location;lat;lon;timestamp;P1;durP1;ratioP1;P2;durP2;ratioP2
52724;SDS011;38621;52.830;6.914;2023-11-21T00:00:12;25.50;;;19.17;;
52724;SDS011;38621;52.830;6.914;2023-11-21T00:02:40;26.67;;;20.77;;
52724;SDS011;38621;52.830;6.914;2023-11-21T00:05:10;27.58;;;20.17;;
52724;SDS011;38621;52.830;6.914;2023-11-21T00:07:36;23.52;;;18.27;;
52724;SDS011;38621;52.830;6.914;2023-11-21T00:10:03;28.25;;;19.73;;
52724;SDS011;38621;52.830;6.914;2023-11-21T00:12:33;23.88;;;19.50;;
52724;SDS011;38621;52.830;6.914;2023-11-21T00:14:59;28.63;;;20.17;;
52724;SDS011;38621;52.830;6.914;2023-11-21T00:17:26;33.17;;;20.15;;
52724;SDS011;38621;52.830;6.914;2023-11-21T00:19:52;27.48;;;19.83;;
52724;SDS011;38621;52.830;6.914;2023-11-21T00:22:18;29.60;;;19.35;;
52724;SDS011;38621;52.830;6.914;2023-11-21T00:24:45;23.83;;;18.85;;
52724;SDS011;38621;52.830;6.914;2023-11-21T00:27:11;24.45;;;18.00;;
52724;SDS011;38621;52.830;6.914;2023-11-21T00:29:36;22.42;;;18.58;;
52724;SDS011;38621;52.830;6.914;2023-11-21T00:32:04;24.10;;;18.67;;
52724;SDS011;38621;52.830;6.914;2023-11-21T00:34:30;23.15;;;19.30;;
52724;SDS011;38621;52.830;6.914;2023-11-21T00:36:57;27.77;;;19.63;;
52724;SDS011;38621;52.830;6.914;2023-11-21T00:39:22;26.63;;;20.23;;
52724;SDS011;38621;52.830;6.914;2023-11-21T00:41:49;26.27;;;19.88;;
52724;SDS011;38621;52.830;6.914;2023-11-21T00:44:15;25.23;;;20.08;;
52724;SDS011;38621;52.830;6.914;2023-11-21T00:46:41;27.38;;;19.92;;
52724;SDS011;38621;52.830;6.914;2023-11-21T00:49:07;26.00;;;20.52;;
52724;SDS011;38621;52.830;6.914;2023-11-21T00:51:33;24.35;;;19.38;;
52724;SDS011;38621;52.830;6.914;2023-11-21T00:53:59;30.35;;;21.10;;
52724;SDS011;38621;52.830;6.914;2023-11-21T00:56:25;29.13;;;20.75;;
52724;SDS011;38621;52.830;6.914;2023-11-21T00:58:51;29.63;;;20.27;;
52724;SDS011;38621;52.830;6.914;2023-11-21T01:01:18;25.88;;;20.25;;
52724;SDS011;38621;52.830;6.914;2023-11-21T01:03:47;27.00;;;18.95;;
52724;SDS011;38621;52.830;6.914;2023-11-21T01:06:14;30.38;;;21.00;;
52724;SDS011;38621;52.830;6.914;2023-11-21T01:08:43;24.20;;;19.48;;
52724;SDS011;38621;52.830;6.914;2023-11-21T01:11:09;26.80;;;20.67;;
52724;SDS011;38621;52.830;6.914;2023-11-21T01:13:37;34.05;;;19.60;;
52724;SDS011;38621;52.830;6.914;2023-11-21T01:16:04;28.20;;;19.90;;
52724;SDS011;38621;52.830;6.914;2023-11-21T01:18:31;28.10;;;20.17;;
52724;SDS011;38621;52.830;6.914;2023-11-21T01:20:57;29.60;;;20.83;;
52724;SDS011;38621;52.830;6.914;2023-11-21T01:23:25;28.58;;;21.40;;
52724;SDS011;38621;52.830;6.914;2023-11-21T01:25:52;32.08;;;20.63;;
52724;SDS011;38621;52.830;6.914;2023-11-21T01:28:18;24.08;;;19.17;;
52724;SDS011;38621;52.830;6.914;2023-11-21T01:30:44;25.55;;;19.20;;
52724;SDS011;38621;52.830;6.914;2023-11-21T01:33:11;27.30;;;19.70;;
52724;SDS011;38621;52.830;6.914;2023-11-21T01:35:37;27.73;;;19.90;;
52724;SDS011;38621;52.830;6.914;2023-11-21T01:38:02;28.55;;;19.27;;
52724;SDS011;38621;52.830;6.914;2023-11-21T01:40:29;29.08;;;20.08;;
52724;SDS011;38621;52.830;6.914;2023-11-21T01:42:55;27.67;;;19.52;;
52724;SDS011;38621;52.830;6.914;2023-11-21T01:45:21;26.63;;;19.17;;
52724;SDS011;38621;52.830;6.914;2023-11-21T01:47:50;25.40;;;18.77;;
52724;SDS011;38621;52.830;6.914;2023-11-21T01:50:16;28.00;;;19.65;;
52724;SDS011;38621;52.830;6.914;2023-11-21T01:52:46;27.52;;;19.67;;
52724;SDS011;38621;52.830;6.914;2023-11-21T01:55:13;26.40;;;19.23;;
52724;SDS011;38621;52.830;6.914;2023-11-21T01:57:43;24.63;;;19.50;;
52724;SDS011;38621;52.830;6.914;2023-11-21T02:00:09;25.38;;;18.63;;
52724;SDS011;38621;52.830;6.914;2023-11-21T02:02:44;31.38;;;20.63;;
52724;SDS011;38621;52.830;6.914;2023-11-21T02:05:11;27.58;;;19.30;;
52724;SDS011;38621;52.830;6.914;2023-11-21T02:07:39;25.50;;;19.23;;
52724;SDS011;38621;52.830;6.914;2023-11-21T02:10:05;27.35;;;18.90;;
52724;SDS011;38621;52.830;6.914;2023-11-21T02:12:32;34.50;;;19.85;;
52724;SDS011;38621;52.830;6.914;2023-11-21T02:14:59;27.95;;;20.02;;
52724;SDS011;38621;52.830;6.914;2023-11-21T02:17:24;31.10;;;19.52;;
52724;SDS011;38621;52.830;6.914;2023-11-21T02:19:52;25.08;;;18.45;;
52724;SDS011;38621;52.830;6.914;2023-11-21T02:22:18;26.98;;;17.58;;
52724;SDS011;38621;52.830;6.914;2023-11-21T02:24:45;29.42;;;20.50;;
52724;SDS011;38621;52.830;6.914;2023-11-21T02:27:11;22.40;;;18.60;;
52724;SDS011;38621;52.830;6.914;2023-11-21T02:29:38;24.48;;;18.58;;
52724;SDS011;38621;52.830;6.914;2023-11-21T02:32:04;23.80;;;18.75;;
52724;SDS011;38621;52.830;6.914;2023-11-21T02:34:30;27.48;;;18.98;;
52724;SDS011;38621;52.830;6.914;2023-11-21T02:36:56;25.40;;;18.80;;
52724;SDS011;38621;52.830;6.914;2023-11-21T02:39:22;25.77;;;18.90;;
52724;SDS011;38621;52.830;6.914;2023-11-21T02:41:49;25.92;;;17.85;;
52724;SDS011;38621;52.830;6.914;2023-11-21T02:44:15;27.90;;;18.98;;
52724;SDS011;38621;52.830;6.914;2023-11-21T02:46:41;27.05;;;18.95;;
52724;SDS011;38621;52.830;6.914;2023-11-21T02:49:06;26.55;;;19.38;;
52724;SDS011;38621;52.830;6.914;2023-11-21T02:51:35;25.52;;;18.50;;
52724;SDS011;38621;52.830;6.914;2023-11-21T02:54:01;28.48;;;19.33;;
52724;SDS011;38621;52.830;6.914;2023-11-21T02:56:28;30.40;;;18.83;;
52724;SDS011;38621;52.830;6.914;2023-11-21T02:58:57;24.33;;;18.52;;
52724;SDS011;38621;52.830;6.914;2023-11-21T03:01:24;26.45;;;19.52;;
52724;SDS011;38621;52.830;6.914;2023-11-21T03:03:50;29.77;;;20.58;;
52724;SDS011;38621;52.830;6.914;2023-11-21T03:06:19;25.83;;;17.80;;
52724;SDS011;38621;52.830;6.914;2023-11-21T03:08:46;26.95;;;20.40;;
52724;SDS011;38621;52.830;6.914;2023-11-21T03:11:12;29.50;;;20.02;;
52724;SDS011;38621;52.830;6.914;2023-11-21T03:13:39;27.27;;;19.75;;
52724;SDS011;38621;52.830;6.914;2023-11-21T03:16:07;25.55;;;19.13;;
52724;SDS011;38621;52.830;6.914;2023-11-21T03:18:34;26.13;;;19.25;;
52724;SDS011;38621;52.830;6.914;2023-11-21T03:20:59;28.73;;;19.83;;
52724;SDS011;38621;52.830;6.914;2023-11-21T03:23:25;26.42;;;18.90;;
52724;SDS011;38621;52.830;6.914;2023-11-21T03:25:51;27.73;;;18.90;;
52724;SDS011;38621;52.830;6.914;2023-11-21T03:28:16;24.55;;;19.08;;
52724;SDS011;38621;52.830;6.914;2023-11-21T03:30:43;23.27;;;18.20;;
52724;SDS011;38621;52.830;6.914;2023-11-21T03:33:08;25.55;;;18.98;;
52724;SDS011;38621;52.830;6.914;2023-11-21T03:35:34;31.30;;;28.27;;
52724;SDS011;38621;52.830;6.914;2023-11-21T03:38:00;24.15;;;18.48;;
52724;SDS011;38621;52.830;6.914;2023-11-21T03:40:26;25.77;;;18.17;;
52724;SDS011;38621;52.830;6.914;2023-11-21T03:42:51;22.77;;;19.42;;
52724;SDS011;38621;52.830;6.914;2023-11-21T03:45:17;24.30;;;18.38;;
52724;SDS011;38621;52.830;6.914;2023-11-21T03:47:43;27.85;;;18.52;;
52724;SDS011;38621;52.830;6.914;2023-11-21T03:50:08;25.00;;;19.17;;
52724;SDS011;38621;52.830;6.914;2023-11-21T03:52:35;28.30;;;18.38;;
52724;SDS011;38621;52.830;6.914;2023-11-21T03:55:01;24.60;;;19.88;;
52724;SDS011;38621;52.830;6.914;2023-11-21T03:57:27;22.60;;;18.65;;
52724;SDS011;38621;52.830;6.914;2023-11-21T03:59:53;20.77;;;17.88;;
52724;SDS011;38621;52.830;6.914;2023-11-21T04:02:19;23.73;;;18.98;;
52724;SDS011;38621;52.830;6.914;2023-11-21T04:04:45;24.27;;;19.58;;
52724;SDS011;38621;52.830;6.914;2023-11-21T04:07:10;23.13;;;19.42;;
52724;SDS011;38621;52.830;6.914;2023-11-21T04:09:38;25.17;;;18.15;;
52724;SDS011;38621;52.830;6.914;2023-11-21T04:12:05;22.75;;;19.48;;
52724;SDS011;38621;52.830;6.914;2023-11-21T04:14:31;21.80;;;18.23;;
52724;SDS011;38621;52.830;6.914;2023-11-21T04:16:56;19.75;;;17.77;;
52724;SDS011;38621;52.830;6.914;2023-11-21T04:19:22;25.77;;;19.20;;
52724;SDS011;38621;52.830;6.914;2023-11-21T04:21:48;20.20;;;17.65;;
52724;SDS011;38621;52.830;6.914;2023-11-21T04:24:14;22.45;;;19.70;;
52724;SDS011;38621;52.830;6.914;2023-11-21T04:26:41;21.08;;;18.80;;
52724;SDS011;38621;52.830;6.914;2023-11-21T04:29:06;22.02;;;18.33;;
52724;SDS011;38621;52.830;6.914;2023-11-21T04:31:32;21.02;;;18.20;;
52724;SDS011;38621;52.830;6.914;2023-11-21T04:33:58;24.88;;;19.17;;
52724;SDS011;38621;52.830;6.914;2023-11-21T04:36:23;19.42;;;17.30;;
52724;SDS011;38621;52.830;6.914;2023-11-21T04:38:49;21.63;;;18.30;;
52724;SDS011;38621;52.830;6.914;2023-11-21T04:41:15;22.92;;;17.55;;
52724;SDS011;38621;52.830;6.914;2023-11-21T04:43:40;15.95;;;14.60;;
52724;SDS011;38621;52.830;6.914;2023-11-21T04:46:07;17.35;;;15.90;;
52724;SDS011;38621;52.830;6.914;2023-11-21T04:48:33;26.73;;;21.40;;
52724;SDS011;38621;52.830;6.914;2023-11-21T04:50:59;22.80;;;19.42;;
52724;SDS011;38621;52.830;6.914;2023-11-21T04:53:25;16.20;;;14.60;;
52724;SDS011;38621;52.830;6.914;2023-11-21T04:55:50;21.15;;;17.30;;
52724;SDS011;38621;52.830;6.914;2023-11-21T04:58:16;17.50;;;15.68;;
52724;SDS011;38621;52.830;6.914;2023-11-21T05:00:42;19.05;;;15.65;;
52724;SDS011;38621;52.830;6.914;2023-11-21T05:03:09;21.77;;;18.73;;
52724;SDS011;38621;52.830;6.914;2023-11-21T05:05:34;25.83;;;20.25;;
52724;SDS011;38621;52.830;6.914;2023-11-21T05:08:00;21.70;;;19.45;;
52724;SDS011;38621;52.830;6.914;2023-11-21T05:10:27;22.33;;;17.30;;
52724;SDS011;38621;52.830;6.914;2023-11-21T05:12:52;18.73;;;16.50;;
52724;SDS011;38621;52.830;6.914;2023-11-21T05:15:18;20.13;;;17.35;;
52724;SDS011;38621;52.830;6.914;2023-11-21T05:17:44;21.63;;;19.40;;
52724;SDS011;38621;52.830;6.914;2023-11-21T05:20:13;21.00;;;18.52;;
52724;SDS011;38621;52.830;6.914;2023-11-21T05:22:43;24.92;;;17.92;;
52724;SDS011;38621;52.830;6.914;2023-11-21T05:25:09;25.08;;;19.10;;
52724;SDS011;38621;52.830;6.914;2023-11-21T05:27:36;21.20;;;18.92;;
52724;SDS011;38621;52.830;6.914;2023-11-21T05:30:02;22.75;;;19.27;;
52724;SDS011;38621;52.830;6.914;2023-11-21T05:32:31;23.08;;;20.65;;
52724;SDS011;38621;52.830;6.914;2023-11-21T05:34:59;23.00;;;20.45;;
52724;SDS011;38621;52.830;6.914;2023-11-21T05:37:26;26.65;;;19.77;;
52724;SDS011;38621;52.830;6.914;2023-11-21T05:39:52;25.23;;;19.83;;
52724;SDS011;38621;52.830;6.914;2023-11-21T05:42:21;24.27;;;20.23;;
52724;SDS011;38621;52.830;6.914;2023-11-21T05:44:48;24.55;;;19.27;;
52724;SDS011;38621;52.830;6.914;2023-11-21T05:47:14;25.92;;;20.48;;
52724;SDS011;38621;52.830;6.914;2023-11-21T05:49:40;23.55;;;19.48;;
52724;SDS011;38621;52.830;6.914;2023-11-21T05:52:05;23.25;;;19.90;;
52724;SDS011;38621;52.830;6.914;2023-11-21T05:54:32;23.77;;;20.02;;
52724;SDS011;38621;52.830;6.914;2023-11-21T05:56:57;21.38;;;18.85;;
52724;SDS011;38621;52.830;6.914;2023-11-21T05:59:24;22.35;;;20.10;;
52724;SDS011;38621;52.830;6.914;2023-11-21T06:01:49;22.65;;;20.17;;
52724;SDS011;38621;52.830;6.914;2023-11-21T06:04:15;26.35;;;20.48;;
52724;SDS011;38621;52.830;6.914;2023-11-21T06:06:41;24.27;;;20.20;;
52724;SDS011;38621;52.830;6.914;2023-11-21T06:09:07;23.15;;;20.48;;
52724;SDS011;38621;52.830;6.914;2023-11-21T06:11:34;24.73;;;21.38;;
52724;SDS011;38621;52.830;6.914;2023-11-21T06:14:01;23.75;;;21.00;;
52724;SDS011;38621;52.830;6.914;2023-11-21T06:16:27;24.67;;;21.70;;
52724;SDS011;38621;52.830;6.914;2023-11-21T06:18:53;26.52;;;22.33;;
52724;SDS011;38621;52.830;6.914;2023-11-21T06:21:19;31.73;;;22.17;;
52724;SDS011;38621;52.830;6.914;2023-11-21T06:23:44;27.85;;;20.60;;
52724;SDS011;38621;52.830;6.914;2023-11-21T06:26:10;27.02;;;22.25;;
52724;SDS011;38621;52.830;6.914;2023-11-21T06:28:36;24.83;;;21.10;;
52724;SDS011;38621;52.830;6.914;2023-11-21T06:31:02;25.23;;;22.17;;
52724;SDS011;38621;52.830;6.914;2023-11-21T06:33:33;25.40;;;20.65;;
52724;SDS011;38621;52.830;6.914;2023-11-21T06:35:59;24.35;;;20.40;;
52724;SDS011;38621;52.830;6.914;2023-11-21T06:38:28;26.15;;;22.08;;
52724;SDS011;38621;52.830;6.914;2023-11-21T06:40:55;29.77;;;22.75;;
52724;SDS011;38621;52.830;6.914;2023-11-21T06:43:23;28.50;;;22.27;;
52724;SDS011;38621;52.830;6.914;2023-11-21T06:45:49;29.63;;;23.08;;
52724;SDS011;38621;52.830;6.914;2023-11-21T06:48:14;25.33;;;22.90;;
52724;SDS011;38621;52.830;6.914;2023-11-21T06:50:40;26.02;;;22.60;;
52724;SDS011;38621;52.830;6.914;2023-11-21T06:53:06;30.73;;;23.08;;
52724;SDS011;38621;52.830;6.914;2023-11-21T06:55:33;27.40;;;23.25;;
52724;SDS011;38621;52.830;6.914;2023-11-21T06:57:59;38.70;;;22.70;;
52724;SDS011;38621;52.830;6.914;2023-11-21T07:00:25;26.17;;;22.35;;
52724;SDS011;38621;52.830;6.914;2023-11-21T07:02:55;29.63;;;23.55;;
52724;SDS011;38621;52.830;6.914;2023-11-21T07:05:21;26.58;;;23.55;;
52724;SDS011;38621;52.830;6.914;2023-11-21T07:07:47;29.90;;;23.98;;
52724;SDS011;38621;52.830;6.914;2023-11-21T07:10:13;31.02;;;23.20;;
52724;SDS011;38621;52.830;6.914;2023-11-21T07:12:39;29.58;;;22.27;;
52724;SDS011;38621;52.830;6.914;2023-11-21T07:15:06;31.02;;;22.58;;
52724;SDS011;38621;52.830;6.914;2023-11-21T07:17:34;23.77;;;21.10;;
52724;SDS011;38621;52.830;6.914;2023-11-21T07:20:04;24.77;;;20.02;;
52724;SDS011;38621;52.830;6.914;2023-11-21T07:22:31;21.45;;;19.25;;
52724;SDS011;38621;52.830;6.914;2023-11-21T07:24:57;22.48;;;19.70;;
52724;SDS011;38621;52.830;6.914;2023-11-21T07:27:23;21.05;;;18.90;;
52724;SDS011;38621;52.830;6.914;2023-11-21T07:29:48;24.02;;;19.35;;
52724;SDS011;38621;52.830;6.914;2023-11-21T07:32:14;23.17;;;20.30;;
52724;SDS011;38621;52.830;6.914;2023-11-21T07:34:40;22.58;;;20.20;;
52724;SDS011;38621;52.830;6.914;2023-11-21T07:37:09;24.15;;;20.60;;
52724;SDS011;38621;52.830;6.914;2023-11-21T07:39:35;23.23;;;20.58;;
52724;SDS011;38621;52.830;6.914;2023-11-21T07:42:01;22.80;;;20.40;;
52724;SDS011;38621;52.830;6.914;2023-11-21T07:44:27;22.10;;;19.63;;
52724;SDS011;38621;52.830;6.914;2023-11-21T07:46:54;22.45;;;19.50;;
52724;SDS011;38621;52.830;6.914;2023-11-21T07:49:23;22.23;;;19.65;;
52724;SDS011;38621;52.830;6.914;2023-11-21T07:51:49;23.65;;;19.63;;
52724;SDS011;38621;52.830;6.914;2023-11-21T07:54:15;23.90;;;19.80;;
52724;SDS011;38621;52.830;6.914;2023-11-21T07:56:41;21.58;;;19.48;;
52724;SDS011;38621;52.830;6.914;2023-11-21T07:59:07;22.15;;;18.83;;
52724;SDS011;38621;52.830;6.914;2023-11-21T08:01:33;24.92;;;19.88;;
52724;SDS011;38621;52.830;6.914;2023-11-21T08:03:58;23.33;;;20.05;;
52724;SDS011;38621;52.830;6.914;2023-11-21T08:06:28;21.55;;;19.27;;
52724;SDS011;38621;52.830;6.914;2023-11-21T08:08:55;21.10;;;19.05;;
52724;SDS011;38621;52.830;6.914;2023-11-21T08:11:22;21.80;;;18.15;;
52724;SDS011;38621;52.830;6.914;2023-11-21T08:13:47;20.60;;;18.45;;
52724;SDS011;38621;52.830;6.914;2023-11-21T08:16:14;21.95;;;18.67;;
52724;SDS011;38621;52.830;6.914;2023-11-21T08:18:40;20.95;;;18.73;;
52724;SDS011;38621;52.830;6.914;2023-11-21T08:21:06;19.60;;;17.65;;
52724;SDS011;38621;52.830;6.914;2023-11-21T08:23:33;19.55;;;17.50;;
52724;SDS011;38621;52.830;6.914;2023-11-21T08:25:59;22.90;;;18.67;;
52724;SDS011;38621;52.830;6.914;2023-11-21T08:28:25;20.27;;;18.05;;
52724;SDS011;38621;52.830;6.914;2023-11-21T08:30:54;20.67;;;16.92;;
52724;SDS011;38621;52.830;6.914;2023-11-21T08:33:19;22.98;;;17.58;;
52724;SDS011;38621;52.830;6.914;2023-11-21T08:35:45;26.35;;;17.95;;
52724;SDS011;38621;52.830;6.914;2023-11-21T08:38:11;25.80;;;16.95;;
52724;SDS011;38621;52.830;6.914;2023-11-21T08:40:38;25.42;;;16.70;;
52724;SDS011;38621;52.830;6.914;2023-11-21T08:43:04;28.55;;;16.27;;
52724;SDS011;38621;52.830;6.914;2023-11-21T08:45:30;27.02;;;17.05;;
52724;SDS011;38621;52.830;6.914;2023-11-21T08:47:56;27.30;;;17.08;;
52724;SDS011;38621;52.830;6.914;2023-11-21T08:50:22;27.05;;;16.80;;
52724;SDS011;38621;52.830;6.914;2023-11-21T08:52:48;30.23;;;18.23;;
52724;SDS011;38621;52.830;6.914;2023-11-21T08:55:14;32.92;;;18.58;;
52724;SDS011;38621;52.830;6.914;2023-11-21T08:57:40;29.38;;;18.85;;
52724;SDS011;38621;52.830;6.914;2023-11-21T09:00:08;31.52;;;19.23;;
52724;SDS011;38621;52.830;6.914;2023-11-21T09:02:40;34.95;;;18.67;;
52724;SDS011;38621;52.830;6.914;2023-11-21T09:05:07;25.17;;;18.35;;
52724;SDS011;38621;52.830;6.914;2023-11-21T09:07:34;24.67;;;16.88;;
52724;SDS011;38621;52.830;6.914;2023-11-21T09:10:01;28.90;;;18.27;;
52724;SDS011;38621;52.830;6.914;2023-11-21T09:12:27;27.88;;;17.02;;
52724;SDS011;38621;52.830;6.914;2023-11-21T09:14:53;24.15;;;17.75;;
52724;SDS011;38621;52.830;6.914;2023-11-21T09:17:19;24.05;;;16.60;;
52724;SDS011;38621;52.830;6.914;2023-11-21T09:19:44;27.05;;;17.13;;
52724;SDS011;38621;52.830;6.914;2023-11-21T09:22:14;24.40;;;17.33;;
52724;SDS011;38621;52.830;6.914;2023-11-21T09:24:43;25.48;;;16.65;;
52724;SDS011;38621;52.830;6.914;2023-11-21T09:27:09;22.35;;;16.73;;
52724;SDS011;38621;52.830;6.914;2023-11-21T09:29:35;25.85;;;16.27;;
52724;SDS011;38621;52.830;6.914;2023-11-21T09:32:03;22.85;;;16.02;;
52724;SDS011;38621;52.830;6.914;2023-11-21T09:34:32;29.95;;;18.35;;
52724;SDS011;38621;52.830;6.914;2023-11-21T09:37:01;25.67;;;17.90;;
52724;SDS011;38621;52.830;6.914;2023-11-21T09:39:30;27.55;;;17.80;;
52724;SDS011;38621;52.830;6.914;2023-11-21T09:42:03;24.15;;;17.23;;
52724;SDS011;38621;52.830;6.914;2023-11-21T09:44:36;24.02;;;18.20;;
52724;SDS011;38621;52.830;6.914;2023-11-21T09:47:26;23.83;;;17.00;;
52724;SDS011;38621;52.830;6.914;2023-11-21T09:49:53;22.98;;;17.05;;
52724;SDS011;38621;52.830;6.914;2023-11-21T09:52:25;21.98;;;16.08;;
52724;SDS011;38621;52.830;6.914;2023-11-21T09:54:52;22.40;;;15.18;;
52724;SDS011;38621;52.830;6.914;2023-11-21T09:57:23;23.80;;;15.77;;
52724;SDS011;38621;52.830;6.914;2023-11-21T09:59:53;21.73;;;14.80;;
52724;SDS011;38621;52.830;6.914;2023-11-21T10:02:25;19.20;;;14.43;;
52724;SDS011;38621;52.830;6.914;2023-11-21T10:04:54;24.30;;;14.55;;
52724;SDS011;38621;52.830;6.914;2023-11-21T10:07:20;18.65;;;13.27;;
52724;SDS011;38621;52.830;6.914;2023-11-21T10:09:47;20.90;;;13.13;;
52724;SDS011;38621;52.830;6.914;2023-11-21T10:12:17;20.02;;;13.52;;
52724;SDS011;38621;52.830;6.914;2023-11-21T10:14:45;14.95;;;11.52;;
52724;SDS011;38621;52.830;6.914;2023-11-21T10:17:14;17.92;;;11.52;;
52724;SDS011;38621;52.830;6.914;2023-11-21T10:19:43;15.75;;;11.70;;
52724;SDS011;38621;52.830;6.914;2023-11-21T10:22:13;14.35;;;11.20;;
52724;SDS011;38621;52.830;6.914;2023-11-21T10:24:42;16.60;;;11.32;;
52724;SDS011;38621;52.830;6.914;2023-11-21T10:27:08;14.20;;;10.75;;
52724;SDS011;38621;52.830;6.914;2023-11-21T10:29:37;13.93;;;10.00;;
52724;SDS011;38621;52.830;6.914;2023-11-21T10:32:04;12.65;;;9.52;;
52724;SDS011;38621;52.830;6.914;2023-11-21T10:34:31;11.90;;;9.27;;
52724;SDS011;38621;52.830;6.914;2023-11-21T10:36:57;10.68;;;8.77;;
52724;SDS011;38621;52.830;6.914;2023-11-21T10:39:23;10.27;;;8.60;;
52724;SDS011;38621;52.830;6.914;2023-11-21T10:41:53;10.15;;;8.15;;
52724;SDS011;38621;52.830;6.914;2023-11-21T10:44:20;10.40;;;7.53;;
52724;SDS011;38621;52.830;6.914;2023-11-21T10:46:51;10.45;;;7.80;;
52724;SDS011;38621;52.830;6.914;2023-11-21T10:49:21;9.23;;;7.40;;
52724;SDS011;38621;52.830;6.914;2023-11-21T10:51:50;8.93;;;6.65;;
52724;SDS011;38621;52.830;6.914;2023-11-21T10:54:21;8.55;;;6.15;;
52724;SDS011;38621;52.830;6.914;2023-11-21T10:56:53;8.77;;;5.75;;
52724;SDS011;38621;52.830;6.914;2023-11-21T10:59:24;8.90;;;5.95;;
52724;SDS011;38621;52.830;6.914;2023-11-21T11:01:54;7.72;;;6.32;;
52724;SDS011;38621;52.830;6.914;2023-11-21T11:04:22;8.38;;;6.95;;
52724;SDS011;38621;52.830;6.914;2023-11-21T11:06:54;8.50;;;6.65;;
52724;SDS011;38621;52.830;6.914;2023-11-21T11:09:22;8.45;;;6.50;;
52724;SDS011;38621;52.830;6.914;2023-11-21T11:11:48;8.82;;;6.55;;
52724;SDS011;38621;52.830;6.914;2023-11-21T11:14:14;7.90;;;6.13;;
52724;SDS011;38621;52.830;6.914;2023-11-21T11:16:41;7.63;;;6.13;;
52724;SDS011;38621;52.830;6.914;2023-11-21T11:19:08;8.05;;;6.47;;
52724;SDS011;38621;52.830;6.914;2023-11-21T11:27:30;7.22;;;5.75;;
52724;SDS011;38621;52.830;6.914;2023-11-21T11:33:10;7.53;;;5.70;;
52724;SDS011;38621;52.830;6.914;2023-11-21T11:35:54;7.65;;;4.97;;
52724;SDS011;38621;52.830;6.914;2023-11-21T11:38:37;6.68;;;5.07;;
52724;SDS011;38621;52.830;6.914;2023-11-21T11:41:03;8.52;;;5.70;;
52724;SDS011;38621;52.830;6.914;2023-11-21T11:43:30;7.82;;;5.45;;
52724;SDS011;38621;52.830;6.914;2023-11-21T11:45:58;10.18;;;5.40;;
52724;SDS011;38621;52.830;6.914;2023-11-21T11:48:25;8.15;;;6.20;;
52724;SDS011;38621;52.830;6.914;2023-11-21T11:53:40;8.03;;;6.53;;
52724;SDS011;38621;52.830;6.914;2023-11-21T11:56:29;11.75;;;5.95;;
52724;SDS011;38621;52.830;6.914;2023-11-21T11:58:57;7.88;;;5.82;;
52724;SDS011;38621;52.830;6.914;2023-11-21T12:01:25;8.00;;;6.35;;
52724;SDS011;38621;52.830;6.914;2023-11-21T12:06:42;8.93;;;5.70;;
52724;SDS011;38621;52.830;6.914;2023-11-21T12:09:17;6.72;;;5.15;;
52724;SDS011;38621;52.830;6.914;2023-11-21T12:11:45;7.53;;;5.30;;
52724;SDS011;38621;52.830;6.914;2023-11-21T12:14:12;7.40;;;5.75;;
52724;SDS011;38621;52.830;6.914;2023-11-21T12:16:39;7.45;;;5.07;;
52724;SDS011;38621;52.830;6.914;2023-11-21T12:19:05;7.22;;;5.22;;
52724;SDS011;38621;52.830;6.914;2023-11-21T12:21:31;7.57;;;5.55;;
52724;SDS011;38621;52.830;6.914;2023-11-21T12:23:57;8.95;;;5.07;;
52724;SDS011;38621;52.830;6.914;2023-11-21T12:26:23;7.50;;;5.68;;
52724;SDS011;38621;52.830;6.914;2023-11-21T12:28:56;7.72;;;5.32;;
52724;SDS011;38621;52.830;6.914;2023-11-21T12:31:22;7.70;;;6.20;;
52724;SDS011;38621;52.830;6.914;2023-11-21T12:33:48;8.52;;;5.60;;
52724;SDS011;38621;52.830;6.914;2023-11-21T12:36:15;9.13;;;6.03;;
52724;SDS011;38621;52.830;6.914;2023-11-21T12:38:41;11.77;;;6.50;;
52724;SDS011;38621;52.830;6.914;2023-11-21T12:41:07;7.90;;;5.55;;
52724;SDS011;38621;52.830;6.914;2023-11-21T12:43:35;6.90;;;5.43;;
52724;SDS011;38621;52.830;6.914;2023-11-21T12:46:11;6.05;;;4.70;;
52724;SDS011;38621;52.830;6.914;2023-11-21T12:48:39;7.65;;;5.25;;
52724;SDS011;38621;52.830;6.914;2023-11-21T12:51:09;6.30;;;4.93;;
52724;SDS011;38621;52.830;6.914;2023-11-21T12:53:37;6.28;;;4.55;;
52724;SDS011;38621;52.830;6.914;2023-11-21T12:56:10;6.93;;;4.72;;
52724;SDS011;38621;52.830;6.914;2023-11-21T12:58:37;5.82;;;4.78;;
52724;SDS011;38621;52.830;6.914;2023-11-21T13:01:07;6.90;;;4.55;;
52724;SDS011;38621;52.830;6.914;2023-11-21T13:03:43;6.38;;;4.68;;
52724;SDS011;38621;52.830;6.914;2023-11-21T13:06:13;6.70;;;4.97;;
52724;SDS011;38621;52.830;6.914;2023-11-21T13:08:43;6.10;;;4.65;;
52724;SDS011;38621;52.830;6.914;2023-11-21T13:11:10;8.82;;;4.95;;
52724;SDS011;38621;52.830;6.914;2023-11-21T13:13:36;6.00;;;4.72;;
52724;SDS011;38621;52.830;6.914;2023-11-21T13:16:05;7.72;;;5.40;;
52724;SDS011;38621;52.830;6.914;2023-11-21T13:18:33;8.55;;;5.50;;
52724;SDS011;38621;52.830;6.914;2023-11-21T13:20:59;7.35;;;5.28;;
52724;SDS011;38621;52.830;6.914;2023-11-21T13:23:35;5.95;;;4.90;;
52724;SDS011;38621;52.830;6.914;2023-11-21T13:26:05;7.32;;;5.53;;
52724;SDS011;38621;52.830;6.914;2023-11-21T13:28:32;7.30;;;5.43;;
52724;SDS011;38621;52.830;6.914;2023-11-21T13:31:02;6.70;;;5.22;;
52724;SDS011;38621;52.830;6.914;2023-11-21T13:33:35;7.43;;;5.63;;
52724;SDS011;38621;52.830;6.914;2023-11-21T13:36:03;8.57;;;5.78;;
52724;SDS011;38621;52.830;6.914;2023-11-21T13:38:32;9.63;;;5.82;;
52724;SDS011;38621;52.830;6.914;2023-11-21T13:41:00;6.85;;;5.82;;
52724;SDS011;38621;52.830;6.914;2023-11-21T13:43:26;8.65;;;6.68;;
52724;SDS011;38621;52.830;6.914;2023-11-21T13:45:54;8.20;;;6.10;;
52724;SDS011;38621;52.830;6.914;2023-11-21T13:48:29;9.40;;;6.67;;
52724;SDS011;38621;52.830;6.914;2023-11-21T13:51:05;8.57;;;6.10;;
52724;SDS011;38621;52.830;6.914;2023-11-21T13:53:45;8.07;;;6.03;;
52724;SDS011;38621;52.830;6.914;2023-11-21T13:56:15;8.60;;;6.57;;
52724;SDS011;38621;52.830;6.914;2023-11-21T13:58:45;8.43;;;6.13;;
52724;SDS011;38621;52.830;6.914;2023-11-21T14:01:17;9.80;;;6.63;;
52724;SDS011;38621;52.830;6.914;2023-11-21T14:03:56;9.68;;;6.55;;
52724;SDS011;38621;52.830;6.914;2023-11-21T14:06:27;6.65;;;5.63;;
52724;SDS011;38621;52.830;6.914;2023-11-21T14:09:00;9.13;;;6.65;;
52724;SDS011;38621;52.830;6.914;2023-11-21T14:11:30;8.68;;;6.45;;
52724;SDS011;38621;52.830;6.914;2023-11-21T14:13:56;9.32;;;6.28;;
52724;SDS011;38621;52.830;6.914;2023-11-21T14:16:24;7.50;;;5.97;;
52724;SDS011;38621;52.830;6.914;2023-11-21T14:18:50;6.82;;;5.93;;
52724;SDS011;38621;52.830;6.914;2023-11-21T14:21:26;7.45;;;6.45;;
52724;SDS011;38621;52.830;6.914;2023-11-21T14:23:52;7.22;;;5.78;;
52724;SDS011;38621;52.830;6.914;2023-11-21T14:26:20;8.40;;;5.93;;
52724;SDS011;38621;52.830;6.914;2023-11-21T14:28:46;7.60;;;6.25;;
52724;SDS011;38621;52.830;6.914;2023-11-21T14:31:14;8.07;;;6.75;;
52724;SDS011;38621;52.830;6.914;2023-11-21T14:33:42;7.78;;;6.32;;
52724;SDS011;38621;52.830;6.914;2023-11-21T14:36:09;7.97;;;6.55;;
52724;SDS011;38621;52.830;6.914;2023-11-21T14:38:38;8.93;;;6.97;;
52724;SDS011;38621;52.830;6.914;2023-11-21T14:41:04;9.00;;;6.88;;
52724;SDS011;38621;52.830;6.914;2023-11-21T14:43:33;10.25;;;7.47;;